Terminal Aerodrome Forecast
Issued by NWS Atlanta, GA

Home | Current Version | Previous Version | Text Only | Print | Product List | Glossary On
Versions: 1 2 3 4 5 6 7 8 9 10 11 12 13 14 15 16 17 18 19 20 21 22 23 24 25 26 27 28 29 30 31 32
962
FTUS42 KFFC 191404 AAA
TAFAHN
TAF AMD
KAHN 191404Z 1914/2012 30012G20KT P6SM SKC
     FM200100 30008KT P6SM SKC
     FM200600 32003KT P6SM SKC=

USA.gov is the U.S. government's official web portal to all federal, state and local government web resources and services.